Time;durP1;ratioP1;P1;durP2;ratioP2;P2;SDS_P1;SDS_P2;PMS_P1;PMS_P2;Temp;Humidity;BMP_temperature;BMP_pressure;BME280_temperature;BME280_humidity;BME280_pressure;Samples;Min_cycle;Max_cycle;Signal;HPM_P1;HPM_P2
2022/02/01 00:01:38;;;;;;;5.13;1.25;;;;;;;18.53;44.76;102080.34;5012695;28;20096;-69
2022/02/01 00:04:06;;;;;;;6.07;1.40;;;;;;;18.49;44.46;102071.78;5012711;28;20026;-68
2022/02/01 00:09:53;;;;;;;6.93;1.52;;;;;;;18.46;44.64;102079.91;5012723;28;20116;-69
2022/02/01 00:12:03;;;;;;;5.03;1.38;;;;;;;18.42;44.37;102081.06;5011510;28;20038;-69
2022/02/01 00:14:42;;;;;;;5.35;1.50;;;;;;;18.40;44.46;102082.09;5012266;28;20042;-69
2022/02/01 00:19:47;;;;;;;5.18;1.75;;;;;;;18.35;44.63;102092.94;5011827;28;20554;-69
2022/02/01 00:35:53;;;;;;;4.55;1.30;;;;;;;18.20;44.32;102089.47;5021791;28;20038;-69
2022/02/01 00:38:25;;;;;;;6.38;1.45;;;;;;;18.18;44.45;102101.88;5016099;28;20025;-69
2022/02/01 00:40:56;;;;;;;4.53;1.20;;;;;;;18.16;44.53;102106.41;5015640;28;20037;-69
2022/02/01 00:43:22;;;;;;;4.90;1.50;;;;;;;18.14;44.22;102105.69;5015676;28;20069;-69
2022/02/01 00:45:48;;;;;;;4.78;1.15;;;;;;;18.12;44.26;102113.69;5015986;28;20030;-69
2022/02/01 00:48:14;;;;;;;4.55;1.33;;;;;;;18.10;44.78;102109.44;5015539;28;20036;-69
2022/02/01 00:50:43;;;;;;;5.32;1.30;;;;;;;18.08;44.57;102106.06;5016157;28;20026;-69
2022/02/01 00:53:08;;;;;;;5.82;1.60;;;;;;;18.05;44.38;102112.34;5015439;28;20446;-70
2022/02/01 00:55:33;;;;;;;4.25;0.95;;;;;;;18.04;44.42;102118.59;5015247;28;20036;-70
2022/02/01 00:57:59;;;;;;;5.75;1.27;;;;;;;18.00;44.27;102098.59;5016343;28;20041;-69
2022/02/01 01:00:24;;;;;;;5.87;1.37;;;;;;;17.99;44.48;102109.25;5015451;28;20044;-69
2022/02/01 01:02:49;;;;;;;5.30;1.20;;;;;;;17.97;44.29;102101.41;5015175;28;20306;-69
2022/02/01 01:05:15;;;;;;;6.85;1.50;;;;;;;17.96;44.73;102089.19;5015674;28;20755;-69
2022/02/01 01:07:40;;;;;;;4.75;1.08;;;;;;;17.94;44.42;102084.00;5015863;28;20524;-70
2022/02/01 01:10:09;;;;;;;5.30;1.38;;;;;;;17.92;44.49;102080.59;5015955;28;20014;-69
2022/02/01 01:12:43;;;;;;;5.57;1.50;;;;;;;17.91;44.45;102078.91;5015517;28;20042;-69
2022/02/01 01:15:30;;;;;;;5.88;1.52;;;;;;;17.89;44.72;102070.22;5014889;28;20056;-69
2022/02/01 01:18:25;;;;;;;4.55;1.30;;;;;;;17.87;44.20;102056.28;5015987;28;20041;-69
2022/02/01 01:45:34;;;;;;;5.60;1.30;;;;;;;17.72;44.51;102076.50;5014252;28;20104;-69
2022/02/01 01:53:30;;;;;;;5.97;1.30;;;;;;;17.67;44.79;102098.81;5014766;28;20801;-69
2022/02/01 01:55:55;;;;;;;5.13;1.10;;;;;;;17.64;44.39;102089.31;5015165;28;20026;-69
2022/02/01 01:58:25;;;;;;;4.05;1.30;;;;;;;17.65;44.48;102105.97;5014016;28;20627;-69
2022/02/01 02:03:35;;;;;;;6.55;1.48;;;;;;;17.61;44.44;102100.03;5014919;28;20033;-71
2022/02/01 02:06:01;;;;;;;6.82;1.30;;;;;;;17.61;44.32;102081.59;5013802;28;20026;-70
2022/02/01 02:08:29;;;;;;;5.82;1.42;;;;;;;17.63;45.34;102089.41;5013966;28;20382;-70
2022/02/01 02:11:21;;;;;;;7.45;1.80;;;;;;;17.64;45.71;102097.22;5014314;28;20092;-70
2022/02/01 02:16:32;;;;;;;4.45;1.20;;;;;;;17.68;45.00;102105.78;5014266;28;20504;-70
2022/02/01 02:18:58;;;;;;;7.57;1.65;;;;;;;17.72;45.22;102084.44;5013664;28;20022;-70
2022/02/01 02:21:29;;;;;;;5.23;1.50;;;;;;;17.74;45.07;102071.16;5014378;28;20025;-70
2022/02/01 02:23:54;;;;;;;6.47;1.60;;;;;;;17.74;45.04;102082.53;5014205;28;20330;-70
2022/02/01 02:26:26;;;;;;;7.07;1.98;;;;;;;17.77;45.34;102081.50;5012941;28;20033;-70
2022/02/01 02:28:52;;;;;;;7.47;1.70;;;;;;;17.80;45.13;102083.09;5014017;28;20037;-70
2022/02/01 02:31:21;;;;;;;6.68;1.45;;;;;;;17.80;44.81;102094.53;5013740;28;20037;-70
2022/02/01 02:33:57;;;;;;;5.78;1.52;;;;;;;17.81;45.12;102082.16;5013294;28;20048;-70
2022/02/01 02:36:22;;;;;;;5.35;1.33;;;;;;;17.82;45.04;102086.50;5013449;28;20113;-70
2022/02/01 02:39:00;;;;;;;4.50;1.33;;;;;;;17.82;45.50;102075.97;5013827;28;20134;-70
2022/02/01 02:41:31;;;;;;;5.70;1.42;;;;;;;17.82;45.33;102075.97;5012698;28;20121;-70
2022/02/01 02:46:48;;;;;;;5.43;1.30;;;;;;;17.83;45.59;102082.91;5013442;28;20045;-70
2022/02/01 02:49:17;;;;;;;4.88;1.38;;;;;;;17.82;45.30;102079.44;5013572;28;20042;-70
2022/02/01 02:51:43;;;;;;;4.90;1.40;;;;;;;17.82;45.35;102068.06;5013643;28;20041;-70
2022/02/01 02:54:13;;;;;;;5.28;1.30;;;;;;;17.83;45.26;102072.38;5012616;28;20502;-70
2022/02/01 02:56:46;;;;;;;5.20;1.50;;;;;;;17.81;45.23;102058.44;5013426;28;20037;-70
2022/02/01 02:59:13;;;;;;;5.78;1.50;;;;;;;17.81;44.94;102063.72;5013110;28;20097;-70
2022/02/01 03:01:39;;;;;;;6.07;1.80;;;;;;;17.79;45.35;102055.91;5012754;28;20030;-70
2022/02/01 03:04:05;;;;;;;4.32;1.02;;;;;;;17.79;45.44;102061.16;5013611;28;20042;-70
2022/02/01 03:06:33;;;;;;;6.15;1.40;;;;;;;17.79;45.02;102071.72;5013117;28;20088;-70
2022/02/01 03:08:58;;;;;;;5.93;1.52;;;;;;;17.80;45.10;102075.19;5012666;28;20038;-70
2022/02/01 03:11:24;;;;;;;5.95;1.23;;;;;;;17.81;44.57;102074.25;5012987;28;20021;-69
2022/02/01 03:13:59;;;;;;;5.68;1.50;;;;;;;17.81;44.45;102072.47;5013128;28;20370;-70
2022/02/01 03:16:52;;;;;;;5.72;1.60;;;;;;;17.82;44.46;102066.25;5012268;28;20366;-69
2022/02/01 03:22:02;;;;;;;5.85;1.38;;;;;;;17.83;44.51;102048.63;5012433;28;20092;-69
2022/02/01 03:24:30;;;;;;;5.75;1.45;;;;;;;17.85;44.63;102046.75;5012819;28;20430;-69
2022/02/01 03:26:56;;;;;;;4.57;1.13;;;;;;;17.84;44.34;102022.16;5013282;28;20079;-70
2022/02/01 03:29:21;;;;;;;4.43;0.98;;;;;;;17.84;44.85;102011.63;5012025;28;20421;-70
2022/02/01 03:31:47;;;;;;;4.25;1.27;;;;;;;17.85;44.98;102010.69;5013307;28;20069;-70
2022/02/01 03:34:12;;;;;;;4.70;1.30;;;;;;;17.86;45.02;102008.91;5012699;28;20473;-69
2022/02/01 03:36:40;;;;;;;4.53;1.37;;;;;;;17.84;44.99;102003.72;5012112;28;20034;-69
2022/02/01 03:39:06;;;;;;;5.82;1.38;;;;;;;17.84;44.79;102005.50;5013236;28;20295;-70
2022/02/01 03:41:31;;;;;;;6.38;1.30;;;;;;;17.84;44.86;101989.69;5012641;28;20056;-69
2022/02/01 03:43:56;;;;;;;5.30;1.08;;;;;;;17.84;44.79;101982.63;5012145;28;20022;-69
2022/02/01 03:46:22;;;;;;;5.55;1.13;;;;;;;17.83;44.74;101985.34;5012498;28;20026;-70
2022/02/01 03:48:47;;;;;;;5.68;1.10;;;;;;;17.83;45.16;101982.72;5012779;28;20060;-70
2022/02/01 03:51:13;;;;;;;6.50;1.50;;;;;;;17.83;44.94;101990.63;5011631;28;20034;-70
2022/02/01 03:53:38;;;;;;;4.78;1.35;;;;;;;17.81;45.03;101976.69;5012493;28;20485;-70
2022/02/01 03:56:04;;;;;;;5.50;1.30;;;;;;;17.81;45.09;101966.97;5012668;28;20042;-69
2022/02/01 03:58:30;;;;;;;6.15;1.10;;;;;;;17.80;44.91;101948.63;5011736;28;20033;-70
2022/02/01 04:00:55;;;;;;;6.07;1.63;;;;;;;17.79;44.95;101950.41;5018505;28;20026;-70
2022/02/01 04:03:21;;;;;;;5.73;1.20;;;;;;;17.80;44.48;101953.91;5018824;28;20030;-70
2022/02/01 04:05:47;;;;;;;5.20;1.60;;;;;;;17.81;44.89;101952.97;5018440;28;20275;-70
2022/02/01 04:08:15;;;;;;;4.05;1.10;;;;;;;17.81;44.59;101955.59;5019039;28;20100;-70
2022/02/01 04:10:40;;;;;;;5.43;1.40;;;;;;;17.81;44.74;101958.22;5019177;28;20029;-70
2022/02/01 04:13:06;;;;;;;5.25;1.33;;;;;;;17.82;44.33;101954.66;5018432;28;20386;-70
2022/02/01 04:15:31;;;;;;;4.32;1.30;;;;;;;17.81;44.63;101942.41;5018899;28;20091;-70
2022/02/01 04:17:57;;;;;;;5.65;1.45;;;;;;;17.82;44.51;101950.22;5018319;28;20034;-70
2022/02/01 04:20:23;;;;;;;5.65;1.30;;;;;;;17.82;44.20;101930.94;5018640;28;20033;-70
2022/02/01 04:22:49;;;;;;;5.90;1.30;;;;;;;17.81;44.46;101942.41;5019273;28;20037;-70
2022/02/01 04:25:14;;;;;;;4.75;1.20;;;;;;;17.81;44.17;101943.25;5017984;28;20466;-70
2022/02/01 04:27:42;;;;;;;4.93;1.40;;;;;;;17.82;44.20;101954.66;5019135;28;20041;-70
2022/02/01 04:30:10;;;;;;;5.32;1.30;;;;;;;17.82;44.24;101960.78;5018808;28;20030;-70
2022/02/01 04:32:45;;;;;;;5.15;1.30;;;;;;;17.82;44.81;101957.31;5018149;28;20165;-70
2022/02/01 04:35:17;;;;;;;6.15;1.70;;;;;;;17.83;44.52;101957.22;5018600;28;20057;-70
2022/02/01 04:37:42;;;;;;;4.97;1.42;;;;;;;17.83;44.67;101959.84;5018712;28;20053;-70
2022/02/01 04:40:15;;;;;;;6.53;1.73;;;;;;;17.84;44.57;101948.34;5017964;28;20022;-70
2022/02/01 04:42:41;;;;;;;9.02;1.60;;;;;;;17.84;44.60;101950.97;5018624;28;20049;-70
2022/02/01 04:45:09;;;;;;;5.53;1.40;;;;;;;17.86;44.37;101953.50;5018598;28;20022;-70
2022/02/01 04:47:35;;;;;;;4.60;1.25;;;;;;;17.86;44.66;101950.88;5017870;28;20052;-70
2022/02/01 04:50:12;;;;;;;5.72;1.50;;;;;;;17.85;44.46;101942.13;5018880;28;20045;-70
2022/02/01 04:52:39;;;;;;;5.18;1.23;;;;;;;17.86;44.16;101940.31;5018889;28;20038;-70
2022/02/01 04:55:05;;;;;;;5.45;1.50;;;;;;;17.84;44.03;101950.13;5017946;28;20030;-70
2022/02/01 04:57:35;;;;;;;5.35;1.30;;;;;;;17.85;43.98;101957.09;5018223;28;20026;-70
2022/02/01 05:00:03;;;;;;;4.82;1.27;;;;;;;17.84;44.20;101953.59;5017951;28;20049;-70
2022/02/01 05:02:28;;;;;;;8.48;1.83;;;;;;;17.84;43.92;101943.06;5018005;28;20018;-70
2022/02/01 05:04:54;;;;;;;6.88;1.65;;;;;;;17.84;43.82;101939.59;5018879;28;20061;-70
2022/02/01 05:07:21;;;;;;;8.07;1.60;;;;;;;17.85;44.13;101935.97;5017375;28;20042;-70
2022/02/01 05:09:47;;;;;;;7.25;1.52;;;;;;;17.84;44.23;101918.50;5018593;28;20279;-70
2022/02/01 05:12:13;;;;;;;6.72;1.60;;;;;;;17.84;44.44;101919.31;5014281;28;20371;-70
2022/02/01 05:14:41;;;;;;;5.30;1.50;;;;;;;17.83;44.45;101928.19;5014507;28;20477;-70
2022/02/01 05:17:07;;;;;;;8.27;1.63;;;;;;;17.86;44.59;101921.88;5015245;28;20468;-70
2022/02/01 05:22:03;;;;;;;5.82;1.60;;;;;;;17.86;44.43;101904.25;5014854;28;20050;-70
2022/02/01 05:24:29;;;;;;;5.90;1.60;;;;;;;17.86;44.33;101893.69;5015096;28;20164;-70
2022/02/01 05:26:55;;;;;;;4.97;1.70;;;;;;;17.87;44.08;101889.28;5015228;28;20097;-70
2022/02/01 05:29:22;;;;;;;7.68;1.50;;;;;;;17.86;44.45;101883.16;5014341;28;20022;-70
2022/02/01 05:31:51;;;;;;;7.90;1.58;;;;;;;17.84;44.54;101869.22;5015440;28;20053;-68
2022/02/01 05:34:20;;;;;;;8.13;1.67;;;;;;;17.86;44.05;101874.41;5014801;28;20096;-69
2022/02/01 05:36:45;;;;;;;7.25;1.77;;;;;;;17.86;44.09;101864.69;5014487;28;20053;-70
2022/02/01 05:39:19;;;;;;;7.90;1.60;;;;;;;17.86;44.28;101848.03;5014665;28;20366;-69
2022/02/01 05:41:45;;;;;;;6.63;1.77;;;;;;;17.86;44.81;101859.41;5014791;28;20134;-68
2022/02/01 05:44:11;;;;;;;4.80;1.60;;;;;;;17.85;44.74;101852.47;5014157;28;20057;-69
2022/02/01 05:46:37;;;;;;;8.68;1.80;;;;;;;17.89;44.46;101851.34;5014895;28;20018;-69
2022/02/01 05:49:04;;;;;;;7.82;2.13;;;;;;;17.89;44.89;101858.41;5014728;28;20029;-70
2022/02/01 05:51:30;;;;;;;5.43;1.50;;;;;;;17.89;44.89;101853.97;5013730;28;20112;-69
2022/02/01 05:53:56;;;;;;;4.72;1.42;;;;;;;17.89;44.79;101843.44;5014739;28;20466;-69
2022/02/01 05:56:21;;;;;;;5.90;1.77;;;;;;;17.90;44.46;101834.59;5013375;28;20026;-69
2022/02/01 05:58:47;;;;;;;5.28;1.65;;;;;;;17.90;44.27;101812.66;5014592;28;20021;-69
2022/02/01 06:01:15;;;;;;;5.60;1.85;;;;;;;17.88;44.12;101812.75;5014450;28;20033;-69
2022/02/01 06:03:43;;;;;;;6.03;2.10;;;;;;;17.89;44.70;101824.97;5013761;28;20025;-69
2022/02/01 06:06:08;;;;;;;5.97;2.10;;;;;;;17.91;44.62;101824.88;5014316;28;20083;-69
2022/02/01 06:08:33;;;;;;;7.88;1.98;;;;;;;17.93;45.30;101815.09;5014325;28;20168;-69
2022/02/01 06:10:59;;;;;;;8.45;1.90;;;;;;;17.95;45.58;101798.19;5013741;28;20040;-69
2022/02/01 06:13:24;;;;;;;7.15;1.90;;;;;;;17.97;46.38;101790.19;5013984;28;20029;-69
2022/02/01 06:15:50;;;;;;;6.47;1.90;;;;;;;18.00;46.30;101792.63;5014336;28;20053;-70
2022/02/01 06:18:15;;;;;;;7.07;1.67;;;;;;;18.04;45.89;101795.91;5013295;28;20018;-69
2022/02/01 06:20:40;;;;;;;5.67;1.90;;;;;;;18.06;46.86;101799.31;5014133;28;20433;-70
2022/02/01 06:23:16;;;;;;;6.90;1.95;;;;;;;18.08;47.65;101790.31;5013790;28;20326;-70
2022/02/01 06:28:07;;;;;;;7.25;1.80;;;;;;;18.13;47.62;101774.19;5014119;28;20025;-69
2022/02/01 06:30:32;;;;;;;6.53;1.80;;;;;;;18.15;47.33;101769.69;5014212;28;20025;-69
2022/02/01 06:32:58;;;;;;;11.23;2.40;;;;;;;18.18;47.31;101777.38;5013366;28;20275;-70
2022/02/01 06:35:30;;;;;;;6.05;1.83;;;;;;;18.19;47.11;101776.44;5013727;28;20033;-69
2022/02/01 06:37:55;;;;;;;6.95;1.95;;;;;;;18.21;47.13;101771.88;5013859;28;20079;-69
2022/02/01 06:40:21;;;;;;;6.95;2.15;;;;;;;18.22;46.52;101773.59;5012882;28;20034;-69
2022/02/01 06:42:46;;;;;;;7.80;2.08;;;;;;;18.23;46.32;101772.66;5013654;28;20054;-70
2022/02/01 06:45:12;;;;;;;8.00;2.00;;;;;;;18.25;46.88;101752.28;5013647;28;20025;-69
2022/02/01 06:47:37;;;;;;;9.20;2.05;;;;;;;18.26;47.81;101750.47;5012911;28;20076;-70
2022/02/01 06:50:04;;;;;;;6.23;1.90;;;;;;;18.28;47.60;101753.88;5013938;28;20030;-68
2022/02/01 06:52:30;;;;;;;7.57;1.92;;;;;;;18.29;47.79;101756.41;5013004;28;20295;-70
2022/02/01 06:55:02;;;;;;;6.72;1.60;;;;;;;18.31;47.60;101761.59;5013534;28;20077;-69
2022/02/01 06:57:27;;;;;;;6.45;1.73;;;;;;;18.33;47.79;101745.66;5013283;28;20061;-69
2022/02/01 06:59:52;;;;;;;8.35;2.08;;;;;;;18.34;47.62;101750.81;5012818;28;20034;-69
2022/02/01 07:02:18;;;;;;;7.05;1.98;;;;;;;18.34;47.56;101742.91;5013134;28;20025;-69
2022/02/01 07:04:46;;;;;;;7.43;1.92;;;;;;;18.36;47.03;101743.63;5013241;28;20025;-69
2022/02/01 07:07:12;;;;;;;6.55;2.00;;;;;;;18.37;47.04;101744.47;5012253;28;20038;-69
2022/02/01 07:09:37;;;;;;;9.88;2.20;;;;;;;18.38;47.30;101747.00;5013436;28;20022;-69
2022/02/01 07:12:06;;;;;;;7.57;2.10;;;;;;;18.39;47.39;101742.56;5013347;28;20079;-69
2022/02/01 07:14:31;;;;;;;7.50;2.15;;;;;;;18.40;47.87;101733.72;5012279;28;20057;-70
2022/02/01 07:16:56;;;;;;;7.53;2.20;;;;;;;18.40;47.91;101737.19;5013314;28;20541;-70
2022/02/01 07:19:22;;;;;;;6.93;2.10;;;;;;;18.42;47.59;101729.16;5012722;28;20113;-70
2022/02/01 07:21:48;;;;;;;8.15;2.28;;;;;;;18.43;47.75;101720.31;5012633;28;20048;-70
2022/02/01 07:24:16;;;;;;;7.10;2.65;;;;;;;18.42;45.89;101723.88;5012876;28;20049;-70
2022/02/01 07:26:52;;;;;;;8.13;2.33;;;;;;;18.42;45.59;101718.59;5013140;28;20053;-70
2022/02/01 07:29:17;;;;;;;6.93;2.25;;;;;;;18.43;46.59;101713.22;5012043;28;20033;-69
2022/02/01 07:31:43;;;;;;;7.33;2.47;;;;;;;18.45;46.93;101716.63;5013011;28;20370;-70
2022/02/01 07:34:08;;;;;;;6.95;2.20;;;;;;;18.29;47.02;101689.56;5011759;28;20287;-69
2022/02/01 07:36:34;;;;;;;6.43;1.80;;;;;;;18.50;46.84;101718.94;5012237;28;20046;-69
2022/02/01 07:39:00;;;;;;;6.57;1.92;;;;;;;18.53;46.61;101715.22;5013159;28;20437;-69
2022/02/01 07:41:31;;;;;;;6.63;1.90;;;;;;;18.54;46.88;101714.28;5012438;28;20621;-72
2022/02/01 07:43:56;;;;;;;7.65;1.77;;;;;;;18.56;46.66;101707.94;5012227;28;20272;-69
2022/02/01 07:46:21;;;;;;;8.43;2.23;;;;;;;18.59;47.11;101707.72;5012459;28;20025;-68
2022/02/01 07:48:47;;;;;;;5.95;1.95;;;;;;;18.60;46.65;101709.41;5012347;28;20297;-69
2022/02/01 07:51:12;;;;;;;5.32;1.70;;;;;;;18.62;46.99;101701.41;5012404;28;20378;-71
2022/02/01 07:53:37;;;;;;;7.07;2.13;;;;;;;18.64;46.60;101702.13;5012512;28;20497;-71
2022/02/01 07:56:03;;;;;;;6.97;1.80;;;;;;;18.63;46.66;101688.09;5012713;28;20038;-71
2022/02/01 07:58:28;;;;;;;5.88;1.80;;;;;;;18.64;47.14;101681.88;5013206;28;20819;-69
2022/02/01 08:00:54;;;;;;;6.93;1.80;;;;;;;18.65;47.14;101674.78;5013513;28;20029;-70
2022/02/01 08:03:22;;;;;;;4.75;1.67;;;;;;;18.67;47.14;101673.72;5013203;28;20481;-70
2022/02/01 08:05:47;;;;;;;7.22;2.22;;;;;;;18.68;47.25;101670.13;5014671;28;20026;-70
2022/02/01 08:08:13;;;;;;;6.93;2.40;;;;;;;18.68;47.28;101659.56;5014399;28;20037;-68
2022/02/01 08:10:44;;;;;;;7.03;2.35;;;;;;;18.71;46.16;101663.78;5014332;28;20684;-69
2022/02/01 08:16:27;;;;;;;6.55;1.75;;;;;;;18.71;46.48;101653.22;5020344;28;20029;-67
2022/02/01 08:18:59;;;;;;;5.68;1.73;;;;;;;18.75;46.88;101659.97;5021551;28;20061;-67
2022/02/01 08:21:27;;;;;;;4.78;1.85;;;;;;;18.76;46.78;101659.03;5023203;28;20034;-69
2022/02/01 08:23:53;;;;;;;6.10;2.00;;;;;;;18.77;46.99;101670.41;5025089;28;20026;-68
2022/02/01 08:26:19;;;;;;;7.30;2.75;;;;;;;18.71;44.77;101660.28;5024527;28;20118;-69
2022/02/01 08:28:44;;;;;;;6.75;1.73;;;;;;;18.70;46.11;101661.25;5024736;28;20022;-69
2022/02/01 08:31:09;;;;;;;5.82;2.38;;;;;;;18.71;46.64;101660.28;5013078;28;20022;-68
2022/02/01 08:33:42;;;;;;;6.03;2.60;;;;;;;18.61;43.98;101658.31;5012676;28;20030;-68
2022/02/01 08:36:07;;;;;;;6.13;2.28;;;;;;;18.58;46.00;101653.25;5012202;28;20085;-66
2022/02/01 08:38:33;;;;;;;7.15;2.15;;;;;;;18.59;45.62;101651.44;5011655;28;20029;-69
2022/02/01 08:41:01;;;;;;;5.72;1.88;;;;;;;18.61;46.21;101652.19;5012863;28;20717;-70
2022/02/01 08:43:27;;;;;;;6.60;1.60;;;;;;;18.65;46.31;101649.22;5012110;28;20465;-68
2022/02/01 08:45:52;;;;;;;6.10;1.73;;;;;;;18.71;46.27;101653.22;5012787;28;20022;-67
2022/02/01 08:48:17;;;;;;;6.10;1.53;;;;;;;18.77;46.13;101650.16;5017342;28;20041;-70
2022/02/01 08:50:43;;;;;;;4.20;1.40;;;;;;;18.80;45.75;101635.88;5015955;28;20362;-67
2022/02/01 08:53:22;;;;;;;11.33;2.03;;;;;;;18.82;46.33;101639.25;5014978;28;20583;-72
2022/02/01 08:58:16;;;;;;;7.30;1.70;;;;;;;18.82;46.11;101612.84;5015704;28;20057;-68
2022/02/01 09:00:41;;;;;;;5.07;1.70;;;;;;;18.80;45.67;101610.31;5015189;28;20064;-68
2022/02/01 09:03:07;;;;;;;5.47;1.50;;;;;;;18.80;45.90;101610.31;5015781;28;20409;-75
2022/02/01 09:05:33;;;;;;;4.05;1.15;;;;;;;18.87;46.49;101604.59;5019851;28;20032;-73
2022/02/01 09:08:01;;;;;;;4.85;1.50;;;;;;;18.95;46.40;101581.97;5016117;28;20589;-72
2022/02/01 09:10:30;;;;;;;3.78;1.50;;;;;;;19.06;46.13;101572.41;5016282;28;20132;-70
2022/02/01 09:13:01;;;;;;;6.38;1.63;;;;;;;19.13;45.73;101552.53;5017832;28;20018;-70
2022/02/01 09:15:28;;;;;;;5.57;1.50;;;;;;;19.21;45.98;101550.97;5016197;28;20042;-71
2022/02/01 09:17:55;;;;;;;4.88;2.28;;;;;;;19.18;43.11;101539.81;5016889;28;20069;-72
2022/02/01 09:20:20;;;;;;;4.05;1.63;;;;;;;19.15;44.80;101540.91;5016538;28;20117;-69
2022/02/01 09:22:46;;;;;;;4.75;1.60;;;;;;;19.18;45.47;101537.16;5017931;28;20382;-69
2022/02/01 09:25:12;;;;;;;6.33;1.53;;;;;;;19.24;45.89;101539.34;5018119;28;20026;-71
2022/02/01 09:27:38;;;;;;;4.72;1.75;;;;;;;19.30;45.86;101535.41;5017388;28;20334;-71
2022/02/01 09:30:05;;;;;;;6.85;1.60;;;;;;;19.34;45.81;101526.28;5016299;28;20057;-70
2022/02/01 09:32:30;;;;;;;5.40;1.70;;;;;;;19.38;45.81;101525.09;5016769;28;20037;-69
2022/02/01 09:34:55;;;;;;;3.65;1.17;;;;;;;19.42;45.93;101530.97;5015273;28;20038;-69
2022/02/01 09:37:23;;;;;;;4.23;1.30;;;;;;;19.45;45.47;101514.91;5016583;28;20033;-69
2022/02/01 09:39:50;;;;;;;5.22;1.38;;;;;;;19.48;45.79;101514.66;5017165;28;20275;-70
2022/02/01 09:42:15;;;;;;;5.07;1.58;;;;;;;19.48;45.94;101499.63;5013832;28;20138;-68
2022/02/01 09:44:44;;;;;;;3.80;1.58;;;;;;;19.44;45.86;101492.06;5014612;28;20125;-67
2022/02/01 09:47:12;;;;;;;4.00;1.10;;;;;;;19.36;45.42;101475.00;5014499;28;20068;-67
2022/02/01 09:49:45;;;;;;;4.63;1.70;;;;;;;19.27;45.94;101462.47;5013928;28;20492;-67
2022/02/01 09:52:10;;;;;;;5.10;1.60;;;;;;;19.22;46.41;101446.13;5014205;28;20496;-68
2022/02/01 09:54:39;;;;;;;3.97;1.43;;;;;;;19.18;46.68;101442.91;5014601;28;20030;-66
2022/02/01 09:57:08;;;;;;;7.47;1.80;;;;;;;19.14;46.92;101432.69;5013234;28;20287;-67
2022/02/01 09:59:37;;;;;;;4.40;1.50;;;;;;;19.11;46.58;101432.91;5014517;28;20026;-67
2022/02/01 10:02:07;;;;;;;6.18;2.03;;;;;;;19.08;46.83;101431.34;5014486;28;20025;-67
2022/02/01 10:04:32;;;;;;;5.18;1.40;;;;;;;19.06;46.85;101433.25;5013766;28;20084;-68
2022/02/01 10:07:27;;;;;;;3.85;1.50;;;;;;;19.01;46.42;101433.59;5014590;28;20026;-68
2022/02/01 10:09:57;;;;;;;6.57;1.30;;;;;;;19.03;46.15;101436.97;5014555;28;20046;-68
2022/02/01 10:12:25;;;;;;;5.70;1.35;;;;;;;19.03;46.04;101425.56;5013821;28;20038;-67
2022/02/01 10:14:58;;;;;;;3.92;1.40;;;;;;;19.02;46.19;101415.94;5014377;28;20378;-67
2022/02/01 10:17:30;;;;;;;3.58;1.33;;;;;;;19.01;46.21;101422.22;5013218;28;20104;-68
2022/02/01 10:19:55;;;;;;;4.55;1.40;;;;;;;18.98;46.04;101420.63;5014282;28;20109;-68
2022/02/01 10:22:37;;;;;;;5.78;1.30;;;;;;;19.00;46.87;101417.88;5013794;28;20026;-69
2022/02/01 10:25:19;;;;;;;6.63;1.50;;;;;;;18.99;46.91;101397.69;5013245;28;20557;-68
2022/02/01 10:28:02;;;;;;;4.50;1.38;;;;;;;18.99;46.88;101410.91;5014023;28;20108;-68
2022/02/01 10:30:32;;;;;;;3.65;1.35;;;;;;;18.98;46.70;101411.88;5013499;28;20769;-68
2022/02/01 10:37:59;;;;;;;4.35;1.30;;;;;;;18.95;46.89;101418.22;5013237;28;20287;-67
2022/02/01 10:40:40;;;;;;;5.28;1.40;;;;;;;18.94;46.67;101405.97;5013432;28;20040;-68
2022/02/01 10:43:28;;;;;;;5.45;1.92;;;;;;;18.92;45.13;101415.81;5013619;28;20050;-66
2022/02/01 10:46:03;;;;;;;4.53;1.85;;;;;;;18.89;46.38;101416.03;5012930;28;20500;-69
2022/02/01 10:48:29;;;;;;;4.00;1.45;;;;;;;18.89;46.95;101394.91;5013375;28;20398;-65
2022/02/01 10:51:04;;;;;;;6.07;1.73;;;;;;;18.90;46.98;101401.03;5013667;28;20026;-65
2022/02/01 10:53:31;;;;;;;4.45;1.38;;;;;;;18.89;47.09;101394.91;5012348;28;20513;-66
2022/02/01 10:55:59;;;;;;;4.03;1.67;;;;;;;18.89;47.29;101383.50;5013655;28;20058;-67
2022/02/01 10:58:24;;;;;;;4.95;1.58;;;;;;;18.90;47.46;101370.19;5013342;28;20037;-68
2022/02/01 11:00:50;;;;;;;6.60;1.67;;;;;;;18.89;47.09;101376.41;5013106;28;20018;-67
2022/02/01 11:03:16;;;;;;;4.40;1.60;;;;;;;18.89;47.12;101376.41;5013431;28;20097;-67
2022/02/01 11:05:46;;;;;;;4.25;1.73;;;;;;;18.90;46.43;101371.97;5013422;28;20113;-65
2022/02/01 11:08:15;;;;;;;3.83;1.63;;;;;;;18.88;46.98;101358.88;5013199;28;20022;-68
2022/02/01 11:10:48;;;;;;;4.57;1.83;;;;;;;18.90;47.37;101361.41;5012547;28;20038;-68
2022/02/01 11:13:16;;;;;;;6.10;1.73;;;;;;;18.89;47.22;101363.22;5012474;28;20437;-69
2022/02/01 11:16:02;;;;;;;4.93;1.80;;;;;;;18.89;47.41;101354.47;5013366;28;20026;-69
2022/02/01 11:18:31;;;;;;;6.35;1.83;;;;;;;18.90;47.61;101350.84;5012739;28;20636;-70
2022/02/01 11:21:02;;;;;;;5.20;1.92;;;;;;;18.90;47.83;101345.56;5012827;28;20033;-71
2022/02/01 11:23:45;;;;;;;4.90;1.73;;;;;;;18.90;47.97;101338.50;5013299;28;20037;-69
2022/02/01 11:26:37;;;;;;;5.18;1.80;;;;;;;18.90;48.50;101340.28;5013253;28;20389;-69
2022/02/01 11:31:33;;;;;;;4.45;1.63;;;;;;;18.91;48.25;101334.06;5012997;28;20429;-69
2022/02/01 11:33:59;;;;;;;6.55;1.83;;;;;;;18.92;48.12;101327.81;5012454;28;20030;-68
2022/02/01 11:36:24;;;;;;;6.75;2.10;;;;;;;18.90;47.90;101327.94;5012881;28;20033;-68
2022/02/01 11:38:58;;;;;;;5.60;1.83;;;;;;;18.91;48.02;101334.88;5012928;28;20056;-67
2022/02/01 11:41:53;;;;;;;7.35;1.70;;;;;;;18.90;48.13;101330.56;5011718;28;20022;-67
2022/02/01 11:44:33;;;;;;;5.53;1.55;;;;;;;18.92;48.37;101341.03;5013383;28;20034;-68
2022/02/01 11:47:17;;;;;;;4.85;2.45;;;;;;;18.91;48.31;101321.66;5012949;28;20080;-68
2022/02/01 11:49:55;;;;;;;6.65;1.60;;;;;;;18.91;47.30;101320.84;5011982;28;20026;-68
2022/02/01 11:52:22;;;;;;;5.97;1.80;;;;;;;18.89;46.75;101322.78;5012164;28;20081;-68
2022/02/01 11:54:49;;;;;;;5.82;1.50;;;;;;;18.87;47.38;101319.38;5012612;28;20044;-68
2022/02/01 11:57:26;;;;;;;5.90;1.75;;;;;;;18.83;45.39;101309.06;5011488;28;20048;-65
2022/02/01 11:59:56;;;;;;;6.13;1.80;;;;;;;18.77;46.94;101311.31;5012761;28;20068;-69
2022/02/01 12:02:40;;;;;;;4.93;1.33;;;;;;;18.77;47.61;101316.59;5011201;28;20050;-67
2022/02/01 12:05:11;;;;;;;4.45;1.50;;;;;;;18.78;47.49;101321.75;5012488;28;20032;-67
2022/02/01 12:07:53;;;;;;;3.95;1.30;;;;;;;18.80;47.97;101309.28;5012405;28;20375;-65
2022/02/01 12:10:19;;;;;;;4.35;1.45;;;;;;;18.81;48.42;101303.03;5011835;28;20030;-65
2022/02/01 12:12:46;;;;;;;7.85;1.42;;;;;;;18.82;48.02;101303.88;5012610;28;20022;-67
2022/02/01 12:15:12;;;;;;;4.25;1.40;;;;;;;18.83;47.64;101309.06;5012110;28;20038;-67
2022/02/01 12:17:46;;;;;;;4.53;1.25;;;;;;;18.83;48.17;101300.28;5011661;28;20044;-67
2022/02/01 12:20:15;;;;;;;4.50;1.40;;;;;;;18.84;48.74;101304.63;5012366;28;20474;-66
2022/02/01 12:22:59;;;;;;;6.35;1.63;;;;;;;18.86;48.61;101302.72;5016587;28;20054;-65
2022/02/01 12:25:25;;;;;;;5.03;1.35;;;;;;;18.88;48.11;101307.88;5015344;28;20026;-66
2022/02/01 12:27:51;;;;;;;5.40;1.55;;;;;;;18.89;48.46;101301.66;5016692;28;20025;-69
2022/02/01 12:30:16;;;;;;;3.38;1.20;;;;;;;18.92;48.45;101289.03;5015891;28;20117;-69
2022/02/01 12:32:53;;;;;;;5.32;1.50;;;;;;;18.99;49.06;101284.97;5018167;28;20018;-70
2022/02/01 12:35:36;;;;;;;6.38;1.30;;;;;;;19.07;48.82;101257.94;5016437;28;20062;-70
2022/02/01 12:38:12;;;;;;;5.72;1.83;;;;;;;19.16;48.67;101259.03;5016193;28;20433;-70
2022/02/01 12:40:38;;;;;;;6.45;1.40;;;;;;;19.23;48.28;101256.72;5016518;28;20022;-71
2022/02/01 12:43:11;;;;;;;4.28;1.25;;;;;;;19.29;48.58;101250.97;5016359;28;20041;-70
2022/02/01 12:45:54;;;;;;;6.47;1.50;;;;;;;19.35;48.44;101251.28;5016065;28;20034;-69
2022/02/01 12:48:20;;;;;;;4.93;1.30;;;;;;;19.42;47.99;101245.53;5016192;28;20468;-68
2022/02/01 12:51:11;;;;;;;5.93;1.52;;;;;;;19.48;47.82;101230.00;5016191;28;20469;-68